sensor_id;sensor_type;location;lat;lon;timestamp;temperature;humidity
30999;DHT22;20549;50.042;8.968;2023-04-15T00:01:12;7.70;74.20
30999;DHT22;20549;50.042;8.968;2023-04-15T00:03:39;7.70;74.40
30999;DHT22;20549;50.042;8.968;2023-04-15T00:06:06;7.70;74.40
30999;DHT22;20549;50.042;8.968;2023-04-15T00:08:32;7.70;74.60
30999;DHT22;20549;50.042;8.968;2023-04-15T00:10:59;7.70;74.40
30999;DHT22;20549;50.042;8.968;2023-04-15T00:13:25;7.70;74.40
30999;DHT22;20549;50.042;8.968;2023-04-15T00:15:52;7.70;74.40
30999;DHT22;20549;50.042;8.968;2023-04-15T00:18:19;7.70;74.30
30999;DHT22;20549;50.042;8.968;2023-04-15T00:20:45;7.70;74.40
30999;DHT22;20549;50.042;8.968;2023-04-15T00:23:12;7.70;74.40
30999;DHT22;20549;50.042;8.968;2023-04-15T00:25:39;7.70;74.70
30999;DHT22;20549;50.042;8.968;2023-04-15T00:28:05;7.70;74.60
30999;DHT22;20549;50.042;8.968;2023-04-15T00:30:32;7.70;74.00
30999;DHT22;20549;50.042;8.968;2023-04-15T00:32:59;7.70;74.70
30999;DHT22;20549;50.042;8.968;2023-04-15T00:35:25;7.70;74.80
30999;DHT22;20549;50.042;8.968;2023-04-15T00:37:51;7.70;75.70
30999;DHT22;20549;50.042;8.968;2023-04-15T00:40:18;7.70;75.10
30999;DHT22;20549;50.042;8.968;2023-04-15T00:42:44;7.70;75.20
30999;DHT22;20549;50.042;8.968;2023-04-15T00:45:11;7.70;75.20
30999;DHT22;20549;50.042;8.968;2023-04-15T00:47:38;7.70;75.20
30999;DHT22;20549;50.042;8.968;2023-04-15T00:50:04;7.60;75.20
30999;DHT22;20549;50.042;8.968;2023-04-15T00:52:31;7.60;75.30
30999;DHT22;20549;50.042;8.968;2023-04-15T00:54:58;7.60;75.30
30999;DHT22;20549;50.042;8.968;2023-04-15T00:57:24;7.60;75.40
30999;DHT22;20549;50.042;8.968;2023-04-15T00:59:51;7.50;75.30
30999;DHT22;20549;50.042;8.968;2023-04-15T01:02:17;7.50;75.40
30999;DHT22;20549;50.042;8.968;2023-04-15T01:04:44;7.50;75.40
30999;DHT22;20549;50.042;8.968;2023-04-15T01:07:10;7.40;75.60
30999;DHT22;20549;50.042;8.968;2023-04-15T01:09:37;7.40;75.70
30999;DHT22;20549;50.042;8.968;2023-04-15T01:12:04;7.40;75.90
30999;DHT22;20549;50.042;8.968;2023-04-15T01:14:30;7.30;76.00
30999;DHT22;20549;50.042;8.968;2023-04-15T01:16:57;7.30;76.10
30999;DHT22;20549;50.042;8.968;2023-04-15T01:19:23;7.30;76.20
30999;DHT22;20549;50.042;8.968;2023-04-15T01:21:50;7.30;76.40
30999;DHT22;20549;50.042;8.968;2023-04-15T01:24:17;7.30;76.50
30999;DHT22;20549;50.042;8.968;2023-04-15T01:26:43;7.30;76.70
30999;DHT22;20549;50.042;8.968;2023-04-15T01:29:10;7.20;76.80
30999;DHT22;20549;50.042;8.968;2023-04-15T01:31:36;7.20;77.00
30999;DHT22;20549;50.042;8.968;2023-04-15T01:34:03;7.20;77.30
30999;DHT22;20549;50.042;8.968;2023-04-15T01:36:29;7.30;77.40
30999;DHT22;20549;50.042;8.968;2023-04-15T01:38:56;7.30;77.60
30999;DHT22;20549;50.042;8.968;2023-04-15T01:41:26;7.30;77.60
30999;DHT22;20549;50.042;8.968;2023-04-15T01:43:49;7.30;77.70
30999;DHT22;20549;50.042;8.968;2023-04-15T01:46:16;7.30;77.80
30999;DHT22;20549;50.042;8.968;2023-04-15T01:48:42;7.40;77.90
30999;DHT22;20549;50.042;8.968;2023-04-15T01:51:09;7.40;77.80
30999;DHT22;20549;50.042;8.968;2023-04-15T01:53:35;7.40;77.80
30999;DHT22;20549;50.042;8.968;2023-04-15T01:56:02;7.40;77.80
30999;DHT22;20549;50.042;8.968;2023-04-15T01:58:29;7.40;77.80
30999;DHT22;20549;50.042;8.968;2023-04-15T02:00:55;7.40;77.80
30999;DHT22;20549;50.042;8.968;2023-04-15T02:03:23;7.40;77.80
30999;DHT22;20549;50.042;8.968;2023-04-15T02:05:48;7.40;77.80
30999;DHT22;20549;50.042;8.968;2023-04-15T02:08:15;7.40;77.80
30999;DHT22;20549;50.042;8.968;2023-04-15T02:10:42;7.40;77.80
30999;DHT22;20549;50.042;8.968;2023-04-15T02:13:08;7.40;77.90
30999;DHT22;20549;50.042;8.968;2023-04-15T02:15:35;7.40;77.90
30999;DHT22;20549;50.042;8.968;2023-04-15T02:18:01;7.40;77.90
30999;DHT22;20549;50.042;8.968;2023-04-15T02:20:28;7.40;77.90
30999;DHT22;20549;50.042;8.968;2023-04-15T02:22:54;7.40;77.90
30999;DHT22;20549;50.042;8.968;2023-04-15T02:25:21;7.40;78.10
30999;DHT22;20549;50.042;8.968;2023-04-15T02:27:48;7.30;78.10
30999;DHT22;20549;50.042;8.968;2023-04-15T02:30:14;7.30;78.20
30999;DHT22;20549;50.042;8.968;2023-04-15T02:32:41;7.30;78.30
30999;DHT22;20549;50.042;8.968;2023-04-15T02:35:07;7.30;78.40
30999;DHT22;20549;50.042;8.968;2023-04-15T02:37:37;7.30;78.40
30999;DHT22;20549;50.042;8.968;2023-04-15T02:40:09;7.20;78.40
30999;DHT22;20549;50.042;8.968;2023-04-15T02:42:38;7.20;78.40
30999;DHT22;20549;50.042;8.968;2023-04-15T02:45:05;7.20;78.50
30999;DHT22;20549;50.042;8.968;2023-04-15T02:47:31;7.20;78.60
30999;DHT22;20549;50.042;8.968;2023-04-15T02:49:58;7.10;78.50
30999;DHT22;20549;50.042;8.968;2023-04-15T02:52:24;7.10;78.60
30999;DHT22;20549;50.042;8.968;2023-04-15T02:54:51;7.10;78.90
30999;DHT22;20549;50.042;8.968;2023-04-15T02:57:18;7.00;78.90
30999;DHT22;20549;50.042;8.968;2023-04-15T02:59:44;7.00;79.00
30999;DHT22;20549;50.042;8.968;2023-04-15T03:02:11;7.00;79.10
30999;DHT22;20549;50.042;8.968;2023-04-15T03:04:37;6.90;79.20
30999;DHT22;20549;50.042;8.968;2023-04-15T03:07:04;6.90;80.20
30999;DHT22;20549;50.042;8.968;2023-04-15T03:09:31;6.90;79.40
30999;DHT22;20549;50.042;8.968;2023-04-15T03:11:57;6.90;79.50
30999;DHT22;20549;50.042;8.968;2023-04-15T03:14:24;6.90;79.60
30999;DHT22;20549;50.042;8.968;2023-04-15T03:16:50;6.80;79.80
30999;DHT22;20549;50.042;8.968;2023-04-15T03:19:17;6.80;79.80
30999;DHT22;20549;50.042;8.968;2023-04-15T03:21:43;6.80;80.00
30999;DHT22;20549;50.042;8.968;2023-04-15T03:24:10;6.80;80.10
30999;DHT22;20549;50.042;8.968;2023-04-15T03:26:37;6.80;80.20
30999;DHT22;20549;50.042;8.968;2023-04-15T03:29:03;6.80;80.30
30999;DHT22;20549;50.042;8.968;2023-04-15T03:31:30;6.80;80.40
30999;DHT22;20549;50.042;8.968;2023-04-15T03:33:56;6.80;80.50
30999;DHT22;20549;50.042;8.968;2023-04-15T03:36:23;6.80;80.60
30999;DHT22;20549;50.042;8.968;2023-04-15T03:38:50;6.80;80.70
30999;DHT22;20549;50.042;8.968;2023-04-15T03:41:16;6.80;80.90
30999;DHT22;20549;50.042;8.968;2023-04-15T03:43:43;6.80;80.90
30999;DHT22;20549;50.042;8.968;2023-04-15T03:46:09;6.90;81.10
30999;DHT22;20549;50.042;8.968;2023-04-15T03:48:36;6.90;81.20
30999;DHT22;20549;50.042;8.968;2023-04-15T03:51:03;6.90;82.10
30999;DHT22;20549;50.042;8.968;2023-04-15T03:53:29;6.90;81.80
30999;DHT22;20549;50.042;8.968;2023-04-15T03:55:56;6.90;81.50
30999;DHT22;20549;50.042;8.968;2023-04-15T03:58:22;6.90;81.50
30999;DHT22;20549;50.042;8.968;2023-04-15T04:00:49;6.90;81.50
30999;DHT22;20549;50.042;8.968;2023-04-15T04:03:15;7.00;81.50
30999;DHT22;20549;50.042;8.968;2023-04-15T04:05:42;7.00;81.70
30999;DHT22;20549;50.042;8.968;2023-04-15T04:08:09;7.00;81.50
30999;DHT22;20549;50.042;8.968;2023-04-15T04:10:35;7.00;81.50
30999;DHT22;20549;50.042;8.968;2023-04-15T04:13:02;7.00;81.60
30999;DHT22;20549;50.042;8.968;2023-04-15T04:15:28;7.00;81.70
30999;DHT22;20549;50.042;8.968;2023-04-15T04:17:55;7.00;81.60
30999;DHT22;20549;50.042;8.968;2023-04-15T04:20:22;7.00;81.60
30999;DHT22;20549;50.042;8.968;2023-04-15T04:22:48;7.00;81.70
30999;DHT22;20549;50.042;8.968;2023-04-15T04:25:15;7.00;81.70
30999;DHT22;20549;50.042;8.968;2023-04-15T04:27:41;7.00;81.60
30999;DHT22;20549;50.042;8.968;2023-04-15T04:30:08;7.00;81.60
30999;DHT22;20549;50.042;8.968;2023-04-15T04:32:34;7.00;81.50
30999;DHT22;20549;50.042;8.968;2023-04-15T04:35:01;7.00;81.70
30999;DHT22;20549;50.042;8.968;2023-04-15T04:37:28;7.00;81.60
30999;DHT22;20549;50.042;8.968;2023-04-15T04:39:54;7.00;81.70
30999;DHT22;20549;50.042;8.968;2023-04-15T04:42:21;7.00;81.90
30999;DHT22;20549;50.042;8.968;2023-04-15T04:44:47;7.00;82.00
30999;DHT22;20549;50.042;8.968;2023-04-15T04:47:14;6.90;82.00
30999;DHT22;20549;50.042;8.968;2023-04-15T04:49:41;6.90;82.10
30999;DHT22;20549;50.042;8.968;2023-04-15T04:52:07;6.90;82.20
30999;DHT22;20549;50.042;8.968;2023-04-15T04:54:34;7.00;82.30
30999;DHT22;20549;50.042;8.968;2023-04-15T04:57:00;6.90;82.50
30999;DHT22;20549;50.042;8.968;2023-04-15T04:59:27;7.00;82.60
30999;DHT22;20549;50.042;8.968;2023-04-15T05:01:53;7.00;82.80
30999;DHT22;20549;50.042;8.968;2023-04-15T05:04:20;7.00;83.10
30999;DHT22;20549;50.042;8.968;2023-04-15T05:06:47;7.00;83.20
30999;DHT22;20549;50.042;8.968;2023-04-15T05:09:13;7.00;83.40
30999;DHT22;20549;50.042;8.968;2023-04-15T05:11:40;7.10;83.50
30999;DHT22;20549;50.042;8.968;2023-04-15T05:14:06;7.10;83.50
30999;DHT22;20549;50.042;8.968;2023-04-15T05:16:33;7.10;83.50
30999;DHT22;20549;50.042;8.968;2023-04-15T05:19:00;7.10;83.60
30999;DHT22;20549;50.042;8.968;2023-04-15T05:21:26;7.20;84.50
30999;DHT22;20549;50.042;8.968;2023-04-15T05:23:53;7.20;84.00
30999;DHT22;20549;50.042;8.968;2023-04-15T05:26:19;7.30;84.20
30999;DHT22;20549;50.042;8.968;2023-04-15T05:28:46;7.30;84.30
30999;DHT22;20549;50.042;8.968;2023-04-15T05:31:12;7.30;84.60
30999;DHT22;20549;50.042;8.968;2023-04-15T05:33:39;7.40;84.80
30999;DHT22;20549;50.042;8.968;2023-04-15T05:36:06;7.50;85.10
30999;DHT22;20549;50.042;8.968;2023-04-15T05:38:32;7.60;85.30
30999;DHT22;20549;50.042;8.968;2023-04-15T05:40:59;7.60;85.40
30999;DHT22;20549;50.042;8.968;2023-04-15T05:43:25;7.70;85.70
30999;DHT22;20549;50.042;8.968;2023-04-15T05:45:52;7.80;86.00
30999;DHT22;20549;50.042;8.968;2023-04-15T05:48:19;7.90;86.10
30999;DHT22;20549;50.042;8.968;2023-04-15T05:50:45;8.00;86.20
30999;DHT22;20549;50.042;8.968;2023-04-15T05:53:12;8.10;86.30
30999;DHT22;20549;50.042;8.968;2023-04-15T05:55:38;8.20;86.40
30999;DHT22;20549;50.042;8.968;2023-04-15T05:58:05;8.30;86.40
30999;DHT22;20549;50.042;8.968;2023-04-15T06:00:31;8.40;86.60
30999;DHT22;20549;50.042;8.968;2023-04-15T06:02:58;8.50;86.70
30999;DHT22;20549;50.042;8.968;2023-04-15T06:05:25;8.70;86.70
30999;DHT22;20549;50.042;8.968;2023-04-15T06:07:51;8.80;86.90
30999;DHT22;20549;50.042;8.968;2023-04-15T06:10:18;8.90;86.70
30999;DHT22;20549;50.042;8.968;2023-04-15T06:12:44;9.10;86.80
30999;DHT22;20549;50.042;8.968;2023-04-15T06:15:11;9.20;87.00
30999;DHT22;20549;50.042;8.968;2023-04-15T06:17:38;9.40;87.00
30999;DHT22;20549;50.042;8.968;2023-04-15T06:20:04;9.50;87.10
30999;DHT22;20549;50.042;8.968;2023-04-15T06:22:31;9.70;87.20
30999;DHT22;20549;50.042;8.968;2023-04-15T06:24:57;9.80;87.10
30999;DHT22;20549;50.042;8.968;2023-04-15T06:27:24;10.00;87.00
30999;DHT22;20549;50.042;8.968;2023-04-15T06:29:50;10.10;86.50
30999;DHT22;20549;50.042;8.968;2023-04-15T06:32:17;10.30;86.30
30999;DHT22;20549;50.042;8.968;2023-04-15T06:34:44;10.40;86.10
30999;DHT22;20549;50.042;8.968;2023-04-15T06:37:10;10.60;85.90
30999;DHT22;20549;50.042;8.968;2023-04-15T06:39:37;10.70;85.60
30999;DHT22;20549;50.042;8.968;2023-04-15T06:42:03;10.80;85.50
30999;DHT22;20549;50.042;8.968;2023-04-15T06:44:30;10.90;85.00
30999;DHT22;20549;50.042;8.968;2023-04-15T06:46:57;11.00;84.70
30999;DHT22;20549;50.042;8.968;2023-04-15T06:49:23;11.20;84.40
30999;DHT22;20549;50.042;8.968;2023-04-15T06:51:50;11.30;84.10
30999;DHT22;20549;50.042;8.968;2023-04-15T06:54:16;11.40;83.60
30999;DHT22;20549;50.042;8.968;2023-04-15T06:56:43;11.50;83.30
30999;DHT22;20549;50.042;8.968;2023-04-15T06:59:10;11.60;83.30
30999;DHT22;20549;50.042;8.968;2023-04-15T07:01:36;11.70;83.20
30999;DHT22;20549;50.042;8.968;2023-04-15T07:04:03;11.90;83.30
30999;DHT22;20549;50.042;8.968;2023-04-15T07:06:29;12.00;83.10
30999;DHT22;20549;50.042;8.968;2023-04-15T07:08:56;12.20;82.90
30999;DHT22;20549;50.042;8.968;2023-04-15T07:11:25;12.40;82.60
30999;DHT22;20549;50.042;8.968;2023-04-15T07:13:49;12.60;82.40
30999;DHT22;20549;50.042;8.968;2023-04-15T07:16:16;12.80;82.00
30999;DHT22;20549;50.042;8.968;2023-04-15T07:18:42;12.90;81.50
30999;DHT22;20549;50.042;8.968;2023-04-15T07:21:09;13.10;80.90
30999;DHT22;20549;50.042;8.968;2023-04-15T07:23:35;13.20;80.40
30999;DHT22;20549;50.042;8.968;2023-04-15T07:26:02;13.40;80.00
30999;DHT22;20549;50.042;8.968;2023-04-15T07:28:29;13.50;79.50
30999;DHT22;20549;50.042;8.968;2023-04-15T07:30:55;13.70;79.10
30999;DHT22;20549;50.042;8.968;2023-04-15T07:33:25;13.80;78.50
30999;DHT22;20549;50.042;8.968;2023-04-15T07:35:51;14.00;78.00
30999;DHT22;20549;50.042;8.968;2023-04-15T07:38:18;14.10;77.10
30999;DHT22;20549;50.042;8.968;2023-04-15T07:40:45;14.10;76.30
30999;DHT22;20549;50.042;8.968;2023-04-15T07:43:11;14.20;75.80
30999;DHT22;20549;50.042;8.968;2023-04-15T07:45:38;14.20;75.20
30999;DHT22;20549;50.042;8.968;2023-04-15T07:48:04;14.20;74.60
30999;DHT22;20549;50.042;8.968;2023-04-15T07:50:31;14.20;74.20
30999;DHT22;20549;50.042;8.968;2023-04-15T07:52:57;14.10;74.10
30999;DHT22;20549;50.042;8.968;2023-04-15T07:55:24;14.10;73.90
30999;DHT22;20549;50.042;8.968;2023-04-15T07:57:51;14.00;73.80
30999;DHT22;20549;50.042;8.968;2023-04-15T08:00:17;14.00;74.00
30999;DHT22;20549;50.042;8.968;2023-04-15T08:02:44;13.90;74.10
30999;DHT22;20549;50.042;8.968;2023-04-15T08:05:10;14.00;74.40
30999;DHT22;20549;50.042;8.968;2023-04-15T08:07:37;14.00;74.70
30999;DHT22;20549;50.042;8.968;2023-04-15T08:10:04;14.00;74.90
30999;DHT22;20549;50.042;8.968;2023-04-15T08:12:30;14.10;75.20
30999;DHT22;20549;50.042;8.968;2023-04-15T08:14:57;14.30;75.50
30999;DHT22;20549;50.042;8.968;2023-04-15T08:17:23;14.40;75.50
30999;DHT22;20549;50.042;8.968;2023-04-15T08:19:50;14.60;75.40
30999;DHT22;20549;50.042;8.968;2023-04-15T08:22:17;14.80;75.30
30999;DHT22;20549;50.042;8.968;2023-04-15T08:24:43;15.10;75.90
30999;DHT22;20549;50.042;8.968;2023-04-15T08:27:10;15.40;76.50
30999;DHT22;20549;50.042;8.968;2023-04-15T08:29:36;15.80;76.50
30999;DHT22;20549;50.042;8.968;2023-04-15T08:32:03;16.20;76.20
30999;DHT22;20549;50.042;8.968;2023-04-15T08:34:30;16.70;76.00
30999;DHT22;20549;50.042;8.968;2023-04-15T08:36:56;17.20;75.30
30999;DHT22;20549;50.042;8.968;2023-04-15T08:39:23;17.70;74.70
30999;DHT22;20549;50.042;8.968;2023-04-15T08:44:16;18.70;72.70
30999;DHT22;20549;50.042;8.968;2023-04-15T08:46:42;19.10;70.30
30999;DHT22;20549;50.042;8.968;2023-04-15T08:49:10;19.30;67.90
30999;DHT22;20549;50.042;8.968;2023-04-15T08:51:36;19.40;66.40
30999;DHT22;20549;50.042;8.968;2023-04-15T08:54:02;19.40;65.30
30999;DHT22;20549;50.042;8.968;2023-04-15T08:56:30;19.40;64.90
30999;DHT22;20549;50.042;8.968;2023-04-15T08:58:55;19.40;64.50
30999;DHT22;20549;50.042;8.968;2023-04-15T09:01:22;19.40;64.20
30999;DHT22;20549;50.042;8.968;2023-04-15T09:03:49;19.40;64.00
30999;DHT22;20549;50.042;8.968;2023-04-15T09:06:16;19.30;64.40
30999;DHT22;20549;50.042;8.968;2023-04-15T09:08:42;19.40;63.20
30999;DHT22;20549;50.042;8.968;2023-04-15T09:11:08;19.30;62.40
30999;DHT22;20549;50.042;8.968;2023-04-15T09:13:35;19.30;61.70
30999;DHT22;20549;50.042;8.968;2023-04-15T09:16:02;19.20;60.60
30999;DHT22;20549;50.042;8.968;2023-04-15T09:18:29;19.00;60.20
30999;DHT22;20549;50.042;8.968;2023-04-15T09:20:55;18.90;60.00
30999;DHT22;20549;50.042;8.968;2023-04-15T09:23:22;18.70;59.90
30999;DHT22;20549;50.042;8.968;2023-04-15T09:25:48;18.40;59.50
30999;DHT22;20549;50.042;8.968;2023-04-15T09:28:14;18.20;59.90
30999;DHT22;20549;50.042;8.968;2023-04-15T09:30:41;18.00;59.60
30999;DHT22;20549;50.042;8.968;2023-04-15T09:33:08;17.80;60.10
30999;DHT22;20549;50.042;8.968;2023-04-15T09:35:34;17.70;60.30
30999;DHT22;20549;50.042;8.968;2023-04-15T09:38:07;17.50;60.50
30999;DHT22;20549;50.042;8.968;2023-04-15T09:40:38;17.40;60.50
30999;DHT22;20549;50.042;8.968;2023-04-15T09:43:03;17.20;60.70
30999;DHT22;20549;50.042;8.968;2023-04-15T09:45:30;17.10;61.80
30999;DHT22;20549;50.042;8.968;2023-04-15T09:47:57;17.00;61.10
30999;DHT22;20549;50.042;8.968;2023-04-15T09:50:23;16.80;61.40
30999;DHT22;20549;50.042;8.968;2023-04-15T09:52:49;16.70;61.60
30999;DHT22;20549;50.042;8.968;2023-04-15T09:55:16;16.60;61.60
30999;DHT22;20549;50.042;8.968;2023-04-15T09:57:43;16.60;61.80
30999;DHT22;20549;50.042;8.968;2023-04-15T10:00:11;16.50;61.90
30999;DHT22;20549;50.042;8.968;2023-04-15T10:02:41;16.40;62.00
30999;DHT22;20549;50.042;8.968;2023-04-15T10:05:10;16.30;62.10
30999;DHT22;20549;50.042;8.968;2023-04-15T10:07:37;16.30;62.30
30999;DHT22;20549;50.042;8.968;2023-04-15T10:10:03;16.20;62.40
30999;DHT22;20549;50.042;8.968;2023-04-15T10:12:30;16.20;62.70
30999;DHT22;20549;50.042;8.968;2023-04-15T10:15:03;16.20;62.90
30999;DHT22;20549;50.042;8.968;2023-04-15T10:17:26;16.20;63.10
30999;DHT22;20549;50.042;8.968;2023-04-15T10:19:53;16.20;63.30
30999;DHT22;20549;50.042;8.968;2023-04-15T10:22:19;16.20;63.30
30999;DHT22;20549;50.042;8.968;2023-04-15T10:24:45;16.30;63.50
30999;DHT22;20549;50.042;8.968;2023-04-15T10:27:12;16.30;63.30
30999;DHT22;20549;50.042;8.968;2023-04-15T10:29:38;16.40;63.20
30999;DHT22;20549;50.042;8.968;2023-04-15T10:32:05;16.40;62.80
30999;DHT22;20549;50.042;8.968;2023-04-15T10:34:32;16.40;62.80
30999;DHT22;20549;50.042;8.968;2023-04-15T10:37:01;16.30;62.80
30999;DHT22;20549;50.042;8.968;2023-04-15T10:39:40;16.30;62.80
30999;DHT22;20549;50.042;8.968;2023-04-15T10:42:13;16.30;62.90
30999;DHT22;20549;50.042;8.968;2023-04-15T10:44:39;16.30;63.10
30999;DHT22;20549;50.042;8.968;2023-04-15T10:47:11;16.30;63.10
30999;DHT22;20549;50.042;8.968;2023-04-15T10:49:45;16.40;63.10
30999;DHT22;20549;50.042;8.968;2023-04-15T10:52:13;16.40;63.10
30999;DHT22;20549;50.042;8.968;2023-04-15T10:54:39;16.40;63.00
30999;DHT22;20549;50.042;8.968;2023-04-15T10:57:06;16.50;63.40
30999;DHT22;20549;50.042;8.968;2023-04-15T10:59:37;16.50;63.50
30999;DHT22;20549;50.042;8.968;2023-04-15T11:02:03;16.60;63.90
30999;DHT22;20549;50.042;8.968;2023-04-15T11:04:56;16.60;64.10
30999;DHT22;20549;50.042;8.968;2023-04-15T11:12:40;16.60;64.10
30999;DHT22;20549;50.042;8.968;2023-04-15T11:15:26;16.50;64.20
30999;DHT22;20549;50.042;8.968;2023-04-15T11:17:51;16.40;64.10
30999;DHT22;20549;50.042;8.968;2023-04-15T11:20:18;16.30;64.20
30999;DHT22;20549;50.042;8.968;2023-04-15T11:22:51;16.20;64.20
30999;DHT22;20549;50.042;8.968;2023-04-15T11:25:30;16.10;64.10
30999;DHT22;20549;50.042;8.968;2023-04-15T11:27:53;16.00;64.00
30999;DHT22;20549;50.042;8.968;2023-04-15T11:30:22;15.80;64.20
30999;DHT22;20549;50.042;8.968;2023-04-15T11:32:52;15.70;64.50
30999;DHT22;20549;50.042;8.968;2023-04-15T11:35:18;15.60;65.00
30999;DHT22;20549;50.042;8.968;2023-04-15T11:37:44;15.40;65.50
30999;DHT22;20549;50.042;8.968;2023-04-15T11:40:11;15.30;65.90
30999;DHT22;20549;50.042;8.968;2023-04-15T11:42:37;15.30;66.70
30999;DHT22;20549;50.042;8.968;2023-04-15T11:45:10;15.20;67.20
30999;DHT22;20549;50.042;8.968;2023-04-15T11:47:37;15.20;67.20
30999;DHT22;20549;50.042;8.968;2023-04-15T11:50:21;15.20;67.00
30999;DHT22;20549;50.042;8.968;2023-04-15T11:52:57;15.10;67.30
30999;DHT22;20549;50.042;8.968;2023-04-15T11:55:24;15.00;67.20
30999;DHT22;20549;50.042;8.968;2023-04-15T11:57:51;14.90;67.50
30999;DHT22;20549;50.042;8.968;2023-04-15T12:00:16;14.70;67.50
30999;DHT22;20549;50.042;8.968;2023-04-15T12:02:43;14.60;68.00
30999;DHT22;20549;50.042;8.968;2023-04-15T12:05:09;14.50;68.40
30999;DHT22;20549;50.042;8.968;2023-04-15T12:07:58;14.40;69.10
30999;DHT22;20549;50.042;8.968;2023-04-15T12:10:24;14.30;69.20
30999;DHT22;20549;50.042;8.968;2023-04-15T12:12:53;14.30;69.20
30999;DHT22;20549;50.042;8.968;2023-04-15T12:15:23;14.20;70.00
30999;DHT22;20549;50.042;8.968;2023-04-15T12:17:52;14.20;70.00
30999;DHT22;20549;50.042;8.968;2023-04-15T12:20:25;14.20;70.30
30999;DHT22;20549;50.042;8.968;2023-04-15T12:22:42;14.10;70.50
30999;DHT22;20549;50.042;8.968;2023-04-15T12:25:09;14.10;70.80
30999;DHT22;20549;50.042;8.968;2023-04-15T12:27:36;14.10;71.10
30999;DHT22;20549;50.042;8.968;2023-04-15T12:30:03;14.10;71.40
30999;DHT22;20549;50.042;8.968;2023-04-15T12:32:29;14.10;71.60
30999;DHT22;20549;50.042;8.968;2023-04-15T12:34:55;14.10;71.60
30999;DHT22;20549;50.042;8.968;2023-04-15T12:37:22;14.10;71.70
30999;DHT22;20549;50.042;8.968;2023-04-15T12:39:49;14.10;72.50
30999;DHT22;20549;50.042;8.968;2023-04-15T12:42:15;14.20;72.10
30999;DHT22;20549;50.042;8.968;2023-04-15T12:44:42;14.10;72.50
30999;DHT22;20549;50.042;8.968;2023-04-15T12:47:09;14.10;72.80
30999;DHT22;20549;50.042;8.968;2023-04-15T12:49:35;14.10;72.90
30999;DHT22;20549;50.042;8.968;2023-04-15T12:52:02;14.20;73.10
30999;DHT22;20549;50.042;8.968;2023-04-15T12:54:31;14.20;73.50
30999;DHT22;20549;50.042;8.968;2023-04-15T12:56:55;14.30;73.90
30999;DHT22;20549;50.042;8.968;2023-04-15T12:59:21;14.30;74.30
30999;DHT22;20549;50.042;8.968;2023-04-15T13:01:48;14.30;74.20
30999;DHT22;20549;50.042;8.968;2023-04-15T13:04:15;14.40;74.30
30999;DHT22;20549;50.042;8.968;2023-04-15T13:06:41;14.40;74.20
30999;DHT22;20549;50.042;8.968;2023-04-15T13:09:08;14.50;74.20
30999;DHT22;20549;50.042;8.968;2023-04-15T13:11:34;14.50;74.20
30999;DHT22;20549;50.042;8.968;2023-04-15T13:14:01;14.50;74.10
30999;DHT22;20549;50.042;8.968;2023-04-15T13:16:27;14.60;74.10
30999;DHT22;20549;50.042;8.968;2023-04-15T13:18:54;14.60;73.90
30999;DHT22;20549;50.042;8.968;2023-04-15T13:21:20;14.60;74.20
30999;DHT22;20549;50.042;8.968;2023-04-15T13:23:47;14.60;74.90
30999;DHT22;20549;50.042;8.968;2023-04-15T13:26:14;14.60;74.20
30999;DHT22;20549;50.042;8.968;2023-04-15T13:28:40;14.60;74.20
30999;DHT22;20549;50.042;8.968;2023-04-15T13:31:07;14.50;74.00
30999;DHT22;20549;50.042;8.968;2023-04-15T13:33:33;14.50;74.10
30999;DHT22;20549;50.042;8.968;2023-04-15T13:36:00;14.50;74.20
30999;DHT22;20549;50.042;8.968;2023-04-15T13:38:27;14.40;74.20
30999;DHT22;20549;50.042;8.968;2023-04-15T13:40:53;14.40;74.20
30999;DHT22;20549;50.042;8.968;2023-04-15T13:43:20;14.30;74.40
30999;DHT22;20549;50.042;8.968;2023-04-15T13:45:46;14.30;74.50
30999;DHT22;20549;50.042;8.968;2023-04-15T13:48:13;14.20;74.80
30999;DHT22;20549;50.042;8.968;2023-04-15T13:50:40;14.10;75.20
30999;DHT22;20549;50.042;8.968;2023-04-15T13:53:06;14.10;75.80
30999;DHT22;20549;50.042;8.968;2023-04-15T13:55:33;14.10;76.00
30999;DHT22;20549;50.042;8.968;2023-04-15T13:57:59;14.10;76.10
30999;DHT22;20549;50.042;8.968;2023-04-15T14:00:26;14.10;76.40
30999;DHT22;20549;50.042;8.968;2023-04-15T14:02:52;14.00;76.50
30999;DHT22;20549;50.042;8.968;2023-04-15T14:05:19;14.00;76.70
30999;DHT22;20549;50.042;8.968;2023-04-15T14:07:46;14.00;77.10
30999;DHT22;20549;50.042;8.968;2023-04-15T14:10:12;14.00;77.40
30999;DHT22;20549;50.042;8.968;2023-04-15T14:12:39;14.00;77.50
30999;DHT22;20549;50.042;8.968;2023-04-15T14:15:05;14.00;77.70
30999;DHT22;20549;50.042;8.968;2023-04-15T14:17:32;13.90;77.50
30999;DHT22;20549;50.042;8.968;2023-04-15T14:19:59;13.90;77.40
30999;DHT22;20549;50.042;8.968;2023-04-15T14:22:25;13.90;77.40
30999;DHT22;20549;50.042;8.968;2023-04-15T14:24:52;13.90;77.10
30999;DHT22;20549;50.042;8.968;2023-04-15T14:27:18;13.80;77.20
30999;DHT22;20549;50.042;8.968;2023-04-15T14:29:45;13.80;78.30
30999;DHT22;20549;50.042;8.968;2023-04-15T14:32:12;13.80;77.70
30999;DHT22;20549;50.042;8.968;2023-04-15T14:34:38;13.80;78.00
30999;DHT22;20549;50.042;8.968;2023-04-15T14:37:05;13.70;78.30
30999;DHT22;20549;50.042;8.968;2023-04-15T14:39:31;13.80;79.40
30999;DHT22;20549;50.042;8.968;2023-04-15T14:41:58;13.80;78.80
30999;DHT22;20549;50.042;8.968;2023-04-15T14:44:25;13.70;78.90
30999;DHT22;20549;50.042;8.968;2023-04-15T14:46:51;13.70;79.20
30999;DHT22;20549;50.042;8.968;2023-04-15T14:49:18;13.80;79.40
30999;DHT22;20549;50.042;8.968;2023-04-15T14:51:44;13.80;79.90
30999;DHT22;20549;50.042;8.968;2023-04-15T14:54:11;13.80;80.00
30999;DHT22;20549;50.042;8.968;2023-04-15T14:56:37;13.80;79.90
30999;DHT22;20549;50.042;8.968;2023-04-15T14:59:04;13.80;79.90
30999;DHT22;20549;50.042;8.968;2023-04-15T15:01:31;13.80;80.00
30999;DHT22;20549;50.042;8.968;2023-04-15T15:03:57;13.80;79.90
30999;DHT22;20549;50.042;8.968;2023-04-15T15:06:24;13.90;80.10
30999;DHT22;20549;50.042;8.968;2023-04-15T15:08:50;13.90;80.60
30999;DHT22;20549;50.042;8.968;2023-04-15T15:11:17;13.90;81.00
30999;DHT22;20549;50.042;8.968;2023-04-15T15:13:44;13.90;81.30
30999;DHT22;20549;50.042;8.968;2023-04-15T15:16:10;13.90;81.30
30999;DHT22;20549;50.042;8.968;2023-04-15T15:18:37;13.90;81.40
30999;DHT22;20549;50.042;8.968;2023-04-15T15:21:03;13.90;81.50
30999;DHT22;20549;50.042;8.968;2023-04-15T15:23:30;13.90;81.30
30999;DHT22;20549;50.042;8.968;2023-04-15T15:25:57;13.90;81.10
30999;DHT22;20549;50.042;8.968;2023-04-15T15:28:23;13.90;81.10
30999;DHT22;20549;50.042;8.968;2023-04-15T15:30:50;13.90;81.00
30999;DHT22;20549;50.042;8.968;2023-04-15T15:33:16;13.80;80.90
30999;DHT22;20549;50.042;8.968;2023-04-15T15:35:43;13.80;80.70
30999;DHT22;20549;50.042;8.968;2023-04-15T15:38:10;13.70;80.80
30999;DHT22;20549;50.042;8.968;2023-04-15T15:40:36;13.70;81.00
30999;DHT22;20549;50.042;8.968;2023-04-15T15:43:03;13.70;81.10